sensor_id;sensor_type;location;lat;lon;timestamp;P1;durP1;ratioP1;P2;durP2;ratioP2
20076;SDS011;12348;42.710;23.378;2023-04-15T00:01:13;9.77;;;4.93;;
20076;SDS011;12348;42.710;23.378;2023-04-15T00:03:43;10.17;;;4.63;;
20076;SDS011;12348;42.710;23.378;2023-04-15T00:06:11;8.63;;;4.93;;
20076;SDS011;12348;42.710;23.378;2023-04-15T00:08:38;13.83;;;5.07;;
20076;SDS011;12348;42.710;23.378;2023-04-15T00:11:05;12.60;;;5.40;;
20076;SDS011;12348;42.710;23.378;2023-04-15T00:13:32;8.97;;;4.80;;
20076;SDS011;12348;42.710;23.378;2023-04-15T00:15:59;7.93;;;4.70;;
20076;SDS011;12348;42.710;23.378;2023-04-15T00:18:26;9.07;;;4.50;;
20076;SDS011;12348;42.710;23.378;2023-04-15T00:20:53;11.03;;;4.97;;
20076;SDS011;12348;42.710;23.378;2023-04-15T00:23:22;13.30;;;4.63;;
20076;SDS011;12348;42.710;23.378;2023-04-15T00:25:48;10.07;;;4.73;;
20076;SDS011;12348;42.710;23.378;2023-04-15T00:28:16;8.47;;;4.83;;
20076;SDS011;12348;42.710;23.378;2023-04-15T00:30:43;8.73;;;4.93;;
20076;SDS011;12348;42.710;23.378;2023-04-15T00:33:10;13.13;;;5.43;;
20076;SDS011;12348;42.710;23.378;2023-04-15T00:35:36;10.80;;;4.47;;
20076;SDS011;12348;42.710;23.378;2023-04-15T00:38:04;6.20;;;3.83;;
20076;SDS011;12348;42.710;23.378;2023-04-15T00:40:33;11.40;;;5.40;;
20076;SDS011;12348;42.710;23.378;2023-04-15T00:43:00;9.63;;;5.27;;
20076;SDS011;12348;42.710;23.378;2023-04-15T00:45:28;7.03;;;4.67;;
20076;SDS011;12348;42.710;23.378;2023-04-15T00:47:56;9.87;;;4.80;;
20076;SDS011;12348;42.710;23.378;2023-04-15T00:50:24;9.00;;;4.57;;
20076;SDS011;12348;42.710;23.378;2023-04-15T00:52:50;12.93;;;5.73;;
20076;SDS011;12348;42.710;23.378;2023-04-15T00:55:17;12.13;;;5.43;;
20076;SDS011;12348;42.710;23.378;2023-04-15T00:57:45;9.70;;;5.53;;
20076;SDS011;12348;42.710;23.378;2023-04-15T01:00:13;14.37;;;6.73;;
20076;SDS011;12348;42.710;23.378;2023-04-15T01:02:40;13.03;;;6.30;;
20076;SDS011;12348;42.710;23.378;2023-04-15T01:05:07;8.87;;;5.67;;
20076;SDS011;12348;42.710;23.378;2023-04-15T01:07:34;13.00;;;6.20;;
20076;SDS011;12348;42.710;23.378;2023-04-15T01:10:02;11.70;;;6.47;;
20076;SDS011;12348;42.710;23.378;2023-04-15T01:12:30;10.57;;;6.30;;
20076;SDS011;12348;42.710;23.378;2023-04-15T01:14:59;10.23;;;5.00;;
20076;SDS011;12348;42.710;23.378;2023-04-15T01:17:27;13.37;;;5.47;;
20076;SDS011;12348;42.710;23.378;2023-04-15T01:19:54;9.20;;;4.97;;
20076;SDS011;12348;42.710;23.378;2023-04-15T01:22:22;13.37;;;5.47;;
20076;SDS011;12348;42.710;23.378;2023-04-15T01:24:50;8.23;;;4.90;;
20076;SDS011;12348;42.710;23.378;2023-04-15T01:27:25;8.60;;;4.93;;
20076;SDS011;12348;42.710;23.378;2023-04-15T01:29:52;11.80;;;6.00;;
20076;SDS011;12348;42.710;23.378;2023-04-15T01:32:19;9.83;;;5.53;;
20076;SDS011;12348;42.710;23.378;2023-04-15T01:34:46;10.70;;;5.60;;
20076;SDS011;12348;42.710;23.378;2023-04-15T01:37:13;11.43;;;6.00;;
20076;SDS011;12348;42.710;23.378;2023-04-15T01:39:39;8.90;;;4.90;;
20076;SDS011;12348;42.710;23.378;2023-04-15T01:42:09;9.87;;;5.70;;
20076;SDS011;12348;42.710;23.378;2023-04-15T01:44:37;10.03;;;5.70;;
20076;SDS011;12348;42.710;23.378;2023-04-15T01:47:04;12.07;;;5.60;;
20076;SDS011;12348;42.710;23.378;2023-04-15T01:49:32;11.70;;;5.07;;
20076;SDS011;12348;42.710;23.378;2023-04-15T01:51:59;13.93;;;6.03;;
20076;SDS011;12348;42.710;23.378;2023-04-15T01:54:26;11.53;;;5.60;;
20076;SDS011;12348;42.710;23.378;2023-04-15T01:56:53;10.93;;;4.70;;
20076;SDS011;12348;42.710;23.378;2023-04-15T01:59:20;14.50;;;5.63;;
20076;SDS011;12348;42.710;23.378;2023-04-15T02:01:49;11.07;;;5.30;;
20076;SDS011;12348;42.710;23.378;2023-04-15T02:04:19;9.57;;;5.23;;
20076;SDS011;12348;42.710;23.378;2023-04-15T02:06:46;8.60;;;4.63;;
20076;SDS011;12348;42.710;23.378;2023-04-15T02:09:12;10.73;;;4.63;;
20076;SDS011;12348;42.710;23.378;2023-04-15T02:11:39;6.73;;;3.93;;
20076;SDS011;12348;42.710;23.378;2023-04-15T02:14:06;5.37;;;3.97;;
20076;SDS011;12348;42.710;23.378;2023-04-15T02:16:33;8.40;;;4.00;;
20076;SDS011;12348;42.710;23.378;2023-04-15T02:19:01;5.60;;;3.93;;
20076;SDS011;12348;42.710;23.378;2023-04-15T02:21:28;6.47;;;4.03;;
20076;SDS011;12348;42.710;23.378;2023-04-15T02:23:55;8.03;;;3.90;;
20076;SDS011;12348;42.710;23.378;2023-04-15T02:26:22;6.90;;;3.70;;
20076;SDS011;12348;42.710;23.378;2023-04-15T02:28:50;6.63;;;3.40;;
20076;SDS011;12348;42.710;23.378;2023-04-15T02:31:17;9.17;;;3.43;;
20076;SDS011;12348;42.710;23.378;2023-04-15T02:33:46;7.33;;;3.80;;
20076;SDS011;12348;42.710;23.378;2023-04-15T02:36:14;5.90;;;4.13;;
20076;SDS011;12348;42.710;23.378;2023-04-15T02:38:41;4.67;;;3.00;;
20076;SDS011;12348;42.710;23.378;2023-04-15T02:41:08;5.63;;;3.20;;
20076;SDS011;12348;42.710;23.378;2023-04-15T02:43:35;4.67;;;3.47;;
20076;SDS011;12348;42.710;23.378;2023-04-15T02:46:04;6.00;;;3.60;;
20076;SDS011;12348;42.710;23.378;2023-04-15T02:48:31;7.57;;;4.00;;
20076;SDS011;12348;42.710;23.378;2023-04-15T02:51:11;7.87;;;4.00;;
20076;SDS011;12348;42.710;23.378;2023-04-15T02:53:42;8.23;;;3.17;;
20076;SDS011;12348;42.710;23.378;2023-04-15T02:56:08;4.67;;;3.17;;
20076;SDS011;12348;42.710;23.378;2023-04-15T02:58:35;6.50;;;4.13;;
20076;SDS011;12348;42.710;23.378;2023-04-15T03:01:02;7.20;;;3.50;;
20076;SDS011;12348;42.710;23.378;2023-04-15T03:03:29;4.70;;;3.37;;
20076;SDS011;12348;42.710;23.378;2023-04-15T03:05:56;4.70;;;3.50;;
20076;SDS011;12348;42.710;23.378;2023-04-15T03:08:23;5.13;;;3.47;;
20076;SDS011;12348;42.710;23.378;2023-04-15T03:10:51;4.47;;;3.53;;
20076;SDS011;12348;42.710;23.378;2023-04-15T03:13:18;5.93;;;3.43;;
20076;SDS011;12348;42.710;23.378;2023-04-15T03:15:45;6.33;;;3.90;;
20076;SDS011;12348;42.710;23.378;2023-04-15T03:18:12;7.53;;;3.77;;
20076;SDS011;12348;42.710;23.378;2023-04-15T03:20:39;7.43;;;4.17;;
20076;SDS011;12348;42.710;23.378;2023-04-15T03:23:06;7.97;;;4.63;;
20076;SDS011;12348;42.710;23.378;2023-04-15T03:25:33;8.13;;;3.57;;
20076;SDS011;12348;42.710;23.378;2023-04-15T03:28:03;12.07;;;4.63;;
20076;SDS011;12348;42.710;23.378;2023-04-15T03:30:30;6.93;;;4.57;;
20076;SDS011;12348;42.710;23.378;2023-04-15T03:32:57;10.00;;;3.93;;
20076;SDS011;12348;42.710;23.378;2023-04-15T03:35:24;8.33;;;4.60;;
20076;SDS011;12348;42.710;23.378;2023-04-15T03:37:51;5.27;;;3.40;;
20076;SDS011;12348;42.710;23.378;2023-04-15T03:40:17;9.63;;;4.37;;
20076;SDS011;12348;42.710;23.378;2023-04-15T03:42:44;8.63;;;4.20;;
20076;SDS011;12348;42.710;23.378;2023-04-15T03:45:13;7.17;;;3.30;;
20076;SDS011;12348;42.710;23.378;2023-04-15T03:47:40;9.50;;;3.87;;
20076;SDS011;12348;42.710;23.378;2023-04-15T03:50:07;10.33;;;4.37;;
20076;SDS011;12348;42.710;23.378;2023-04-15T03:52:33;5.93;;;4.63;;
20076;SDS011;12348;42.710;23.378;2023-04-15T03:55:00;5.37;;;3.90;;
20076;SDS011;12348;42.710;23.378;2023-04-15T03:57:28;6.77;;;4.40;;
20076;SDS011;12348;42.710;23.378;2023-04-15T03:59:55;8.87;;;4.03;;
20076;SDS011;12348;42.710;23.378;2023-04-15T04:02:23;4.93;;;4.00;;
20076;SDS011;12348;42.710;23.378;2023-04-15T04:04:50;8.20;;;4.17;;
20076;SDS011;12348;42.710;23.378;2023-04-15T04:07:17;6.90;;;4.53;;
20076;SDS011;12348;42.710;23.378;2023-04-15T04:09:44;8.20;;;4.73;;
20076;SDS011;12348;42.710;23.378;2023-04-15T04:12:10;7.77;;;4.13;;
20076;SDS011;12348;42.710;23.378;2023-04-15T04:14:37;4.80;;;3.30;;
20076;SDS011;12348;42.710;23.378;2023-04-15T04:17:04;10.70;;;3.70;;
20076;SDS011;12348;42.710;23.378;2023-04-15T04:19:32;7.13;;;3.93;;
20076;SDS011;12348;42.710;23.378;2023-04-15T04:21:59;7.90;;;3.83;;
20076;SDS011;12348;42.710;23.378;2023-04-15T04:24:26;4.23;;;3.03;;
20076;SDS011;12348;42.710;23.378;2023-04-15T04:26:53;6.37;;;3.80;;
20076;SDS011;12348;42.710;23.378;2023-04-15T04:29:20;5.70;;;3.40;;
20076;SDS011;12348;42.710;23.378;2023-04-15T04:31:47;7.40;;;3.73;;
20076;SDS011;12348;42.710;23.378;2023-04-15T04:34:14;8.60;;;4.43;;
20076;SDS011;12348;42.710;23.378;2023-04-15T04:36:42;7.70;;;3.83;;
20076;SDS011;12348;42.710;23.378;2023-04-15T04:39:09;5.37;;;3.40;;
20076;SDS011;12348;42.710;23.378;2023-04-15T04:41:36;8.10;;;3.80;;
20076;SDS011;12348;42.710;23.378;2023-04-15T04:44:03;6.03;;;3.93;;
20076;SDS011;12348;42.710;23.378;2023-04-15T04:46:29;7.73;;;4.83;;
20076;SDS011;12348;42.710;23.378;2023-04-15T04:48:56;7.13;;;4.63;;
20076;SDS011;12348;42.710;23.378;2023-04-15T04:51:23;7.87;;;5.47;;
20076;SDS011;12348;42.710;23.378;2023-04-15T04:53:51;9.27;;;5.43;;
20076;SDS011;12348;42.710;23.378;2023-04-15T04:56:19;10.07;;;5.23;;
20076;SDS011;12348;42.710;23.378;2023-04-15T04:58:46;10.17;;;5.93;;
20076;SDS011;12348;42.710;23.378;2023-04-15T05:01:12;10.90;;;5.07;;
20076;SDS011;12348;42.710;23.378;2023-04-15T05:03:39;8.37;;;5.20;;
20076;SDS011;12348;42.710;23.378;2023-04-15T05:06:06;7.20;;;4.70;;
20076;SDS011;12348;42.710;23.378;2023-04-15T05:08:33;7.73;;;4.93;;
20076;SDS011;12348;42.710;23.378;2023-04-15T05:11:01;8.13;;;4.83;;
20076;SDS011;12348;42.710;23.378;2023-04-15T05:13:29;6.90;;;4.80;;
20076;SDS011;12348;42.710;23.378;2023-04-15T05:15:56;6.93;;;4.47;;
20076;SDS011;12348;42.710;23.378;2023-04-15T05:18:23;5.63;;;4.10;;
20076;SDS011;12348;42.710;23.378;2023-04-15T05:20:49;7.70;;;4.93;;
20076;SDS011;12348;42.710;23.378;2023-04-15T05:23:16;10.90;;;5.63;;
20076;SDS011;12348;42.710;23.378;2023-04-15T05:25:43;11.17;;;5.00;;
20076;SDS011;12348;42.710;23.378;2023-04-15T05:28:14;7.97;;;4.57;;
20076;SDS011;12348;42.710;23.378;2023-04-15T05:30:41;6.77;;;4.33;;
20076;SDS011;12348;42.710;23.378;2023-04-15T05:33:08;8.30;;;4.57;;
20076;SDS011;12348;42.710;23.378;2023-04-15T05:35:35;8.40;;;4.50;;
20076;SDS011;12348;42.710;23.378;2023-04-15T05:38:02;7.50;;;4.07;;
20076;SDS011;12348;42.710;23.378;2023-04-15T05:40:29;5.27;;;4.27;;
20076;SDS011;12348;42.710;23.378;2023-04-15T05:42:57;5.63;;;3.80;;
20076;SDS011;12348;42.710;23.378;2023-04-15T05:45:25;6.43;;;3.50;;
20076;SDS011;12348;42.710;23.378;2023-04-15T05:47:51;5.20;;;3.97;;
20076;SDS011;12348;42.710;23.378;2023-04-15T05:50:19;10.43;;;4.70;;
20076;SDS011;12348;42.710;23.378;2023-04-15T05:52:46;8.77;;;5.00;;
20076;SDS011;12348;42.710;23.378;2023-04-15T05:55:12;8.10;;;4.83;;
20076;SDS011;12348;42.710;23.378;2023-04-15T05:57:39;9.57;;;5.70;;
20076;SDS011;12348;42.710;23.378;2023-04-15T06:00:07;7.80;;;5.17;;
20076;SDS011;12348;42.710;23.378;2023-04-15T06:02:35;9.73;;;5.90;;
20076;SDS011;12348;42.710;23.378;2023-04-15T06:05:02;9.33;;;6.27;;
20076;SDS011;12348;42.710;23.378;2023-04-15T06:07:33;9.80;;;5.70;;
20076;SDS011;12348;42.710;23.378;2023-04-15T06:10:00;8.20;;;5.27;;
20076;SDS011;12348;42.710;23.378;2023-04-15T06:12:27;9.93;;;3.47;;
20076;SDS011;12348;42.710;23.378;2023-04-15T06:14:54;3.63;;;3.07;;
20076;SDS011;12348;42.710;23.378;2023-04-15T06:17:21;6.93;;;3.27;;
20076;SDS011;12348;42.710;23.378;2023-04-15T06:19:50;9.63;;;3.50;;
20076;SDS011;12348;42.710;23.378;2023-04-15T06:22:19;5.33;;;3.00;;
20076;SDS011;12348;42.710;23.378;2023-04-15T06:24:46;7.40;;;4.00;;
20076;SDS011;12348;42.710;23.378;2023-04-15T06:27:13;3.70;;;2.27;;
20076;SDS011;12348;42.710;23.378;2023-04-15T06:29:40;4.73;;;1.90;;
20076;SDS011;12348;42.710;23.378;2023-04-15T06:32:06;4.33;;;2.47;;
20076;SDS011;12348;42.710;23.378;2023-04-15T06:34:33;3.47;;;2.07;;
20076;SDS011;12348;42.710;23.378;2023-04-15T06:37:02;4.47;;;2.47;;
20076;SDS011;12348;42.710;23.378;2023-04-15T06:39:29;3.50;;;2.00;;
20076;SDS011;12348;42.710;23.378;2023-04-15T06:41:56;5.63;;;2.27;;
20076;SDS011;12348;42.710;23.378;2023-04-15T06:44:23;7.53;;;2.30;;
20076;SDS011;12348;42.710;23.378;2023-04-15T06:46:50;29.17;;;8.13;;
20076;SDS011;12348;42.710;23.378;2023-04-15T06:49:17;9.33;;;3.30;;
20076;SDS011;12348;42.710;23.378;2023-04-15T06:51:44;30.13;;;12.27;;
20076;SDS011;12348;42.710;23.378;2023-04-15T06:54:12;19.27;;;8.33;;
20076;SDS011;12348;42.710;23.378;2023-04-15T06:56:39;22.10;;;9.40;;
20076;SDS011;12348;42.710;23.378;2023-04-15T06:59:06;9.57;;;4.20;;
20076;SDS011;12348;42.710;23.378;2023-04-15T07:01:33;7.27;;;4.20;;
20076;SDS011;12348;42.710;23.378;2023-04-15T07:04:00;7.60;;;2.80;;
20076;SDS011;12348;42.710;23.378;2023-04-15T07:06:27;8.17;;;3.60;;
20076;SDS011;12348;42.710;23.378;2023-04-15T07:08:53;5.47;;;2.33;;
20076;SDS011;12348;42.710;23.378;2023-04-15T07:11:23;7.93;;;3.33;;
20076;SDS011;12348;42.710;23.378;2023-04-15T07:13:51;4.97;;;2.93;;
20076;SDS011;12348;42.710;23.378;2023-04-15T07:16:18;7.07;;;3.07;;
20076;SDS011;12348;42.710;23.378;2023-04-15T07:18:45;6.47;;;3.77;;
20076;SDS011;12348;42.710;23.378;2023-04-15T07:21:12;6.67;;;3.50;;
20076;SDS011;12348;42.710;23.378;2023-04-15T07:23:39;7.23;;;3.73;;
20076;SDS011;12348;42.710;23.378;2023-04-15T07:26:07;5.37;;;3.43;;
20076;SDS011;12348;42.710;23.378;2023-04-15T07:28:36;5.53;;;3.10;;
20076;SDS011;12348;42.710;23.378;2023-04-15T07:31:03;5.37;;;2.80;;
20076;SDS011;12348;42.710;23.378;2023-04-15T07:33:30;8.93;;;3.93;;
20076;SDS011;12348;42.710;23.378;2023-04-15T07:35:57;5.73;;;3.23;;
20076;SDS011;12348;42.710;23.378;2023-04-15T07:38:24;6.30;;;2.90;;
20076;SDS011;12348;42.710;23.378;2023-04-15T07:40:51;5.87;;;2.50;;
20076;SDS011;12348;42.710;23.378;2023-04-15T07:43:18;4.40;;;2.40;;
20076;SDS011;12348;42.710;23.378;2023-04-15T07:45:47;7.40;;;4.60;;
20076;SDS011;12348;42.710;23.378;2023-04-15T07:48:14;10.93;;;6.03;;
20076;SDS011;12348;42.710;23.378;2023-04-15T07:50:41;5.80;;;2.83;;
20076;SDS011;12348;42.710;23.378;2023-04-15T07:53:08;7.73;;;3.80;;
20076;SDS011;12348;42.710;23.378;2023-04-15T07:55:35;7.77;;;4.80;;
20076;SDS011;12348;42.710;23.378;2023-04-15T07:58:03;14.90;;;6.23;;
20076;SDS011;12348;42.710;23.378;2023-04-15T08:00:29;6.73;;;4.07;;
20076;SDS011;12348;42.710;23.378;2023-04-15T08:02:58;9.77;;;3.67;;
20076;SDS011;12348;42.710;23.378;2023-04-15T08:05:26;7.57;;;4.83;;
20076;SDS011;12348;42.710;23.378;2023-04-15T08:07:52;5.73;;;3.07;;
20076;SDS011;12348;42.710;23.378;2023-04-15T08:10:19;9.77;;;3.43;;
20076;SDS011;12348;42.710;23.378;2023-04-15T08:12:46;7.40;;;3.20;;
20076;SDS011;12348;42.710;23.378;2023-04-15T08:15:14;9.73;;;3.73;;
20076;SDS011;12348;42.710;23.378;2023-04-15T08:17:42;7.27;;;2.93;;
20076;SDS011;12348;42.710;23.378;2023-04-15T08:20:10;7.20;;;3.00;;
20076;SDS011;12348;42.710;23.378;2023-04-15T08:22:38;4.83;;;2.50;;
20076;SDS011;12348;42.710;23.378;2023-04-15T08:25:06;6.97;;;2.97;;
20076;SDS011;12348;42.710;23.378;2023-04-15T08:27:33;4.13;;;2.20;;
20076;SDS011;12348;42.710;23.378;2023-04-15T08:30:00;5.20;;;3.03;;
20076;SDS011;12348;42.710;23.378;2023-04-15T08:32:27;5.03;;;3.00;;
20076;SDS011;12348;42.710;23.378;2023-04-15T08:34:54;4.53;;;2.83;;
20076;SDS011;12348;42.710;23.378;2023-04-15T08:37:22;3.63;;;2.10;;
20076;SDS011;12348;42.710;23.378;2023-04-15T08:39:50;4.13;;;2.60;;
20076;SDS011;12348;42.710;23.378;2023-04-15T08:42:18;5.70;;;2.63;;
20076;SDS011;12348;42.710;23.378;2023-04-15T08:44:52;6.20;;;2.13;;
20076;SDS011;12348;42.710;23.378;2023-04-15T08:47:20;3.73;;;1.90;;
20076;SDS011;12348;42.710;23.378;2023-04-15T08:49:51;7.20;;;2.50;;
20076;SDS011;12348;42.710;23.378;2023-04-15T08:52:20;2.33;;;2.00;;
20076;SDS011;12348;42.710;23.378;2023-04-15T08:54:49;6.87;;;3.67;;
20076;SDS011;12348;42.710;23.378;2023-04-15T08:57:18;2.47;;;1.73;;
20076;SDS011;12348;42.710;23.378;2023-04-15T08:59:45;7.17;;;1.80;;
20076;SDS011;12348;42.710;23.378;2023-04-15T09:02:13;3.00;;;1.70;;
20076;SDS011;12348;42.710;23.378;2023-04-15T09:04:40;5.10;;;1.80;;
20076;SDS011;12348;42.710;23.378;2023-04-15T09:07:07;4.57;;;2.00;;
20076;SDS011;12348;42.710;23.378;2023-04-15T09:09:34;3.47;;;1.67;;
20076;SDS011;12348;42.710;23.378;2023-04-15T09:12:05;6.10;;;1.60;;
20076;SDS011;12348;42.710;23.378;2023-04-15T09:14:33;3.97;;;1.40;;
20076;SDS011;12348;42.710;23.378;2023-04-15T09:17:00;5.50;;;1.73;;
20076;SDS011;12348;42.710;23.378;2023-04-15T09:19:28;3.30;;;1.23;;
20076;SDS011;12348;42.710;23.378;2023-04-15T09:21:57;2.20;;;1.30;;
20076;SDS011;12348;42.710;23.378;2023-04-15T09:24:27;4.77;;;1.47;;
20076;SDS011;12348;42.710;23.378;2023-04-15T09:27:01;2.47;;;1.30;;
20076;SDS011;12348;42.710;23.378;2023-04-15T09:29:29;3.80;;;1.63;;
20076;SDS011;12348;42.710;23.378;2023-04-15T09:31:57;6.93;;;1.47;;
20076;SDS011;12348;42.710;23.378;2023-04-15T09:34:35;3.43;;;1.57;;
20076;SDS011;12348;42.710;23.378;2023-04-15T09:37:02;2.80;;;1.60;;
20076;SDS011;12348;42.710;23.378;2023-04-15T09:39:43;3.00;;;1.83;;
20076;SDS011;12348;42.710;23.378;2023-04-15T09:42:12;2.73;;;1.57;;
20076;SDS011;12348;42.710;23.378;2023-04-15T09:44:42;2.93;;;1.80;;
20076;SDS011;12348;42.710;23.378;2023-04-15T09:47:09;3.60;;;1.40;;
20076;SDS011;12348;42.710;23.378;2023-04-15T09:49:55;2.40;;;1.30;;
20076;SDS011;12348;42.710;23.378;2023-04-15T09:52:22;4.83;;;1.30;;
20076;SDS011;12348;42.710;23.378;2023-04-15T09:54:51;2.70;;;1.10;;
20076;SDS011;12348;42.710;23.378;2023-04-15T09:57:19;2.57;;;1.17;;
20076;SDS011;12348;42.710;23.378;2023-04-15T09:59:49;3.73;;;1.47;;
20076;SDS011;12348;42.710;23.378;2023-04-15T10:02:16;2.97;;;1.00;;
20076;SDS011;12348;42.710;23.378;2023-04-15T10:04:44;2.47;;;1.03;;
20076;SDS011;12348;42.710;23.378;2023-04-15T10:07:14;1.70;;;1.30;;
20076;SDS011;12348;42.710;23.378;2023-04-15T10:09:42;1.90;;;0.97;;
20076;SDS011;12348;42.710;23.378;2023-04-15T10:12:11;6.47;;;1.70;;
20076;SDS011;12348;42.710;23.378;2023-04-15T10:14:38;1.70;;;1.30;;
20076;SDS011;12348;42.710;23.378;2023-04-15T10:17:09;4.93;;;1.30;;
20076;SDS011;12348;42.710;23.378;2023-04-15T10:19:37;4.50;;;2.00;;
20076;SDS011;12348;42.710;23.378;2023-04-15T10:22:04;3.33;;;1.33;;
20076;SDS011;12348;42.710;23.378;2023-04-15T10:24:32;2.10;;;1.70;;
20076;SDS011;12348;42.710;23.378;2023-04-15T10:26:59;7.50;;;3.40;;
20076;SDS011;12348;42.710;23.378;2023-04-15T10:29:28;10.93;;;6.23;;
20076;SDS011;12348;42.710;23.378;2023-04-15T10:31:55;5.53;;;3.90;;
20076;SDS011;12348;42.710;23.378;2023-04-15T10:34:25;3.20;;;1.20;;
20076;SDS011;12348;42.710;23.378;2023-04-15T10:36:54;5.10;;;1.50;;
20076;SDS011;12348;42.710;23.378;2023-04-15T10:39:42;1.50;;;1.10;;
20076;SDS011;12348;42.710;23.378;2023-04-15T10:42:10;1.93;;;1.23;;
20076;SDS011;12348;42.710;23.378;2023-04-15T10:44:37;1.47;;;1.20;;
20076;SDS011;12348;42.710;23.378;2023-04-15T10:47:09;1.43;;;1.10;;
20076;SDS011;12348;42.710;23.378;2023-04-15T10:49:45;3.13;;;0.90;;
20076;SDS011;12348;42.710;23.378;2023-04-15T10:52:14;3.77;;;1.33;;
20076;SDS011;12348;42.710;23.378;2023-04-15T10:54:41;1.43;;;1.20;;
20076;SDS011;12348;42.710;23.378;2023-04-15T10:57:13;1.70;;;1.00;;
20076;SDS011;12348;42.710;23.378;2023-04-15T11:02:39;3.67;;;1.30;;
20076;SDS011;12348;42.710;23.378;2023-04-15T11:05:09;1.37;;;1.07;;
20076;SDS011;12348;42.710;23.378;2023-04-15T11:07:38;2.53;;;0.90;;
20076;SDS011;12348;42.710;23.378;2023-04-15T11:13:21;3.30;;;1.67;;
20076;SDS011;12348;42.710;23.378;2023-04-15T11:16:01;2.07;;;1.13;;
20076;SDS011;12348;42.710;23.378;2023-04-15T11:18:29;2.77;;;0.70;;
20076;SDS011;12348;42.710;23.378;2023-04-15T11:20:59;2.90;;;1.17;;
20076;SDS011;12348;42.710;23.378;2023-04-15T11:23:29;2.70;;;1.30;;
20076;SDS011;12348;42.710;23.378;2023-04-15T11:26:01;3.80;;;1.27;;
20076;SDS011;12348;42.710;23.378;2023-04-15T11:28:33;3.70;;;1.10;;
20076;SDS011;12348;42.710;23.378;2023-04-15T11:31:07;3.43;;;1.70;;
20076;SDS011;12348;42.710;23.378;2023-04-15T11:33:36;2.67;;;1.07;;
20076;SDS011;12348;42.710;23.378;2023-04-15T11:36:05;2.87;;;0.97;;
20076;SDS011;12348;42.710;23.378;2023-04-15T11:38:33;1.67;;;1.20;;
20076;SDS011;12348;42.710;23.378;2023-04-15T11:41:00;1.90;;;1.07;;
20076;SDS011;12348;42.710;23.378;2023-04-15T11:43:27;1.33;;;0.90;;
20076;SDS011;12348;42.710;23.378;2023-04-15T11:45:59;2.23;;;1.10;;
20076;SDS011;12348;42.710;23.378;2023-04-15T11:48:28;1.70;;;1.10;;
20076;SDS011;12348;42.710;23.378;2023-04-15T11:50:56;2.77;;;0.80;;
20076;SDS011;12348;42.710;23.378;2023-04-15T11:53:34;1.40;;;0.97;;
20076;SDS011;12348;42.710;23.378;2023-04-15T11:56:02;2.17;;;0.90;;
20076;SDS011;12348;42.710;23.378;2023-04-15T11:58:29;2.17;;;1.17;;
20076;SDS011;12348;42.710;23.378;2023-04-15T12:00:57;2.40;;;1.00;;
20076;SDS011;12348;42.710;23.378;2023-04-15T12:03:25;2.40;;;0.97;;
20076;SDS011;12348;42.710;23.378;2023-04-15T12:06:10;3.23;;;0.93;;
20076;SDS011;12348;42.710;23.378;2023-04-15T12:08:55;3.37;;;1.00;;
20076;SDS011;12348;42.710;23.378;2023-04-15T12:11:27;2.77;;;1.00;;
20076;SDS011;12348;42.710;23.378;2023-04-15T12:13:57;2.43;;;1.20;;
20076;SDS011;12348;42.710;23.378;2023-04-15T12:16:26;1.10;;;0.90;;
20076;SDS011;12348;42.710;23.378;2023-04-15T12:18:54;6.67;;;1.30;;
20076;SDS011;12348;42.710;23.378;2023-04-15T12:21:22;3.93;;;1.10;;
20076;SDS011;12348;42.710;23.378;2023-04-15T12:23:50;1.10;;;0.80;;
20076;SDS011;12348;42.710;23.378;2023-04-15T12:26:26;1.53;;;1.00;;
20076;SDS011;12348;42.710;23.378;2023-04-15T12:28:53;1.67;;;0.77;;
20076;SDS011;12348;42.710;23.378;2023-04-15T12:31:21;3.10;;;1.23;;
20076;SDS011;12348;42.710;23.378;2023-04-15T12:33:48;3.43;;;1.40;;
20076;SDS011;12348;42.710;23.378;2023-04-15T12:36:16;1.43;;;1.10;;
20076;SDS011;12348;42.710;23.378;2023-04-15T12:38:43;3.27;;;1.50;;
20076;SDS011;12348;42.710;23.378;2023-04-15T12:41:09;5.90;;;2.77;;
20076;SDS011;12348;42.710;23.378;2023-04-15T12:43:37;2.83;;;1.57;;
20076;SDS011;12348;42.710;23.378;2023-04-15T12:46:04;1.00;;;0.73;;
20076;SDS011;12348;42.710;23.378;2023-04-15T12:48:32;3.00;;;1.40;;
20076;SDS011;12348;42.710;23.378;2023-04-15T12:50:59;15.33;;;2.53;;
20076;SDS011;12348;42.710;23.378;2023-04-15T12:53:26;6.13;;;1.37;;
20076;SDS011;12348;42.710;23.378;2023-04-15T12:55:53;4.00;;;1.40;;
20076;SDS011;12348;42.710;23.378;2023-04-15T12:58:19;1.30;;;0.80;;
20076;SDS011;12348;42.710;23.378;2023-04-15T13:00:48;2.67;;;1.00;;
20076;SDS011;12348;42.710;23.378;2023-04-15T13:03:15;0.90;;;0.70;;
20076;SDS011;12348;42.710;23.378;2023-04-15T13:05:42;1.77;;;1.00;;
20076;SDS011;12348;42.710;23.378;2023-04-15T13:08:09;1.37;;;0.63;;
20076;SDS011;12348;42.710;23.378;2023-04-15T13:10:35;1.70;;;1.03;;
20076;SDS011;12348;42.710;23.378;2023-04-15T13:13:03;1.30;;;0.60;;
20076;SDS011;12348;42.710;23.378;2023-04-15T13:15:30;1.47;;;1.13;;
20076;SDS011;12348;42.710;23.378;2023-04-15T13:18:00;1.63;;;0.87;;
20076;SDS011;12348;42.710;23.378;2023-04-15T13:20:27;1.50;;;0.80;;
20076;SDS011;12348;42.710;23.378;2023-04-15T13:22:53;0.63;;;0.57;;
20076;SDS011;12348;42.710;23.378;2023-04-15T13:25:20;3.90;;;0.70;;
20076;SDS011;12348;42.710;23.378;2023-04-15T13:27:47;2.13;;;0.63;;
20076;SDS011;12348;42.710;23.378;2023-04-15T13:30:13;1.60;;;0.70;;
20076;SDS011;12348;42.710;23.378;2023-04-15T13:32:40;1.23;;;0.70;;
20076;SDS011;12348;42.710;23.378;2023-04-15T13:35:08;1.13;;;0.67;;
20076;SDS011;12348;42.710;23.378;2023-04-15T13:37:35;2.40;;;0.80;;
20076;SDS011;12348;42.710;23.378;2023-04-15T13:40:03;1.60;;;0.80;;
20076;SDS011;12348;42.710;23.378;2023-04-15T13:42:32;2.27;;;0.70;;
20076;SDS011;12348;42.710;23.378;2023-04-15T13:44:59;1.87;;;0.70;;
20076;SDS011;12348;42.710;23.378;2023-04-15T13:47:26;2.70;;;1.27;;
20076;SDS011;12348;42.710;23.378;2023-04-15T13:49:52;1.47;;;1.00;;
20076;SDS011;12348;42.710;23.378;2023-04-15T13:52:22;3.23;;;0.97;;
20076;SDS011;12348;42.710;23.378;2023-04-15T13:54:49;2.80;;;0.50;;
20076;SDS011;12348;42.710;23.378;2023-04-15T13:57:16;1.43;;;0.70;;
20076;SDS011;12348;42.710;23.378;2023-04-15T13:59:42;1.50;;;0.50;;
20076;SDS011;12348;42.710;23.378;2023-04-15T14:02:09;2.10;;;1.00;;
20076;SDS011;12348;42.710;23.378;2023-04-15T14:04:36;1.13;;;0.77;;
20076;SDS011;12348;42.710;23.378;2023-04-15T14:07:04;1.87;;;0.60;;
20076;SDS011;12348;42.710;23.378;2023-04-15T14:09:33;1.70;;;0.97;;
20076;SDS011;12348;42.710;23.378;2023-04-15T14:12:00;2.10;;;0.70;;
20076;SDS011;12348;42.710;23.378;2023-04-15T14:14:27;2.17;;;1.40;;
20076;SDS011;12348;42.710;23.378;2023-04-15T14:16:54;4.80;;;0.90;;
20076;SDS011;12348;42.710;23.378;2023-04-15T14:19:21;3.00;;;1.23;;
20076;SDS011;12348;42.710;23.378;2023-04-15T14:21:49;4.80;;;2.00;;
20076;SDS011;12348;42.710;23.378;2023-04-15T14:24:15;0.83;;;0.57;;
20076;SDS011;12348;42.710;23.378;2023-04-15T14:26:44;2.53;;;1.10;;
20076;SDS011;12348;42.710;23.378;2023-04-15T14:29:11;1.93;;;0.87;;
20076;SDS011;12348;42.710;23.378;2023-04-15T14:31:38;1.53;;;0.80;;
20076;SDS011;12348;42.710;23.378;2023-04-15T14:34:05;2.20;;;0.90;;
20076;SDS011;12348;42.710;23.378;2023-04-15T14:36:32;3.23;;;1.03;;
20076;SDS011;12348;42.710;23.378;2023-04-15T14:38:58;3.00;;;1.23;;
20076;SDS011;12348;42.710;23.378;2023-04-15T14:41:26;2.37;;;1.20;;
20076;SDS011;12348;42.710;23.378;2023-04-15T14:43:54;2.67;;;0.67;;